Etusivu
METAR-TAF:

METAR-TAF

Lentoasemat :

Rochelle Municipal Airport (Koritz Field)

Rochelle, Illinois, Yhdysvallat

Leveyspiiri: 41-53-35N, Pituuspiiri: 089-04-42W, korkeus merenpinnasta: 238 m

Tämänhetkinen sää

Tämä raportti tehtiin 13 minuuttia sitten, kello 10.55 UTC
Tuuli 10 kn etelästä puuskistuen 16 kn:hen
Lämpötila 7°C
Kosteus 93%
Ilmanpaine 1009 hPa
Näkyvyys: 4.8 km
Pilvistä 2100 ft:n korkeudessa
sadetta

METAR: KRPJ 211055Z AUTO 17010G16KT 3SM RA OVC021 07/06 A2981 RMK AO2 P0024 T00650064

Aika: 05:08 (11:08 UTC)


TAF: puuttuu

Säähavainnot ja -ennusteet yli 4000 lentoasemalta (METAR- ja TAF-raportit).

Käytössä olevat sääasemat on merkitty karttaan keltaisilla ja punaisilla pisteillä.

Aseta hiiri pisteen päälle nähdäksesi sääaseman nimen.

Klikkaa sitten nähdäksesi säähavainnot ja -ennusteet.

Kartan vaihtaminen: klikkaa mustalla rastilla varustettuja vihreitä pisteitä, niin voit zoomata sisään; viivalla varustettua vihreää pistettä, niin voit zoomata ulos tai vihreitä nuolia, niin pääset viereisille kartoille.


METAR-TAF: